Terminal Aerodrome Forecast
Issued by NWS Wilmington, OH

Current Version | Previous Version | Graphics & Text | Print | Product List | Glossary On
Versions: 1 2 3 4 5 6 7 8 9 10 11 12 13 14 15 16 17 18 19
417
FTUS41 KILN 290539
TAFCMH
TAF
KCMH 290539Z 2906/3006 13008KT P6SM -RA VCTS BKN060CB OVC090
     FM290900 17007KT P6SM +SHRA VCTS OVC050CB
     FM291200 22008KT 6SM SHRA VCTS OVC025CB
     FM291600 24009KT P6SM VCSH OVC025
     FM291800 32007KT P6SM VCSH OVC050
     FM292000 08009KT P6SM VCSH OVC090
     FM292100 12009KT P6SM VCSH BKN130=

USA.gov is the U.S. government's official web portal to all federal, state and local government web resources and services.